Time;durP1;ratioP1;P1;durP2;ratioP2;P2;SDS_P1;SDS_P2;PMS_P1;PMS_P2;Temp;Humidity;BMP_temperature;BMP_pressure;BME280_temperature;BME280_humidity;BME280_pressure;Samples;Min_cycle;Max_cycle;Signal;HPM_P1;HPM_P2
2022/11/24 00:00:53;;;;;;;;;;;7.30;99.90;;;;;;5094082;28;19946;-68
2022/11/24 00:03:19;;;;;;;;;;;7.30;99.90;;;;;;5093752;28;20006;-66
2022/11/24 00:05:44;;;;;;;;;;;7.30;99.90;;;;;;5093104;28;19924;-66
2022/11/24 00:08:10;;;;;;;;;;;7.30;99.90;;;;;;5093574;28;19928;-67
2022/11/24 00:10:36;;;;;;;;;;;7.30;99.90;;;;;;5093793;28;19970;-66
2022/11/24 00:13:01;;;;;;;;;;;7.30;99.90;;;;;;5094352;28;19928;-67
2022/11/24 00:15:27;;;;;;;;;;;7.30;99.90;;;;;;5093888;28;19988;-66
2022/11/24 00:17:52;;;;;;;;;;;7.30;99.90;;;;;;5092780;28;19931;-69
2022/11/24 00:20:18;;;;;;;;;;;7.20;99.90;;;;;;5075552;28;19924;-65
2022/11/24 00:22:44;;;;;;;;;;;7.20;99.90;;;;;;5093636;28;19924;-67
2022/11/24 00:25:09;;;;;;;;;;;7.20;99.90;;;;;;5092639;28;19924;-67
2022/11/24 00:27:35;;;;;;;;;;;7.20;99.90;;;;;;5093689;28;20292;-66
2022/11/24 00:30:00;;;;;;;;;;;7.20;99.90;;;;;;5092071;28;19975;-67
2022/11/24 00:32:27;;;;;;;;;;;7.10;99.90;;;;;;5126328;27;19920;-65
2022/11/24 00:34:53;;;;;;;;;;;7.10;99.90;;;;;;5093826;28;19924;-67
2022/11/24 00:37:18;;;;;;;;;;;7.10;99.90;;;;;;5093130;28;19968;-65
2022/11/24 00:39:44;;;;;;;;;;;7.10;99.90;;;;;;5126285;27;19931;-68
2022/11/24 00:42:10;;;;;;;;;;;7.10;99.90;;;;;;5093074;28;19924;-70
2022/11/24 00:44:35;;;;;;;;;;;7.00;99.90;;;;;;5092408;28;20388;-66
2022/11/24 00:47:01;;;;;;;;;;;7.10;99.90;;;;;;5093544;28;20356;-67
2022/11/24 00:49:26;;;;;;;;;;;7.00;99.90;;;;;;5091911;28;19977;-66
2022/11/24 00:51:52;;;;;;;;;;;7.00;99.90;;;;;;5109483;28;19931;-66
2022/11/24 00:54:17;;;;;;;;;;;7.00;99.90;;;;;;5126017;27;19931;-66
2022/11/24 00:56:43;;;;;;;;;;;7.00;99.90;;;;;;5093363;28;19939;-66
2022/11/24 00:59:08;;;;;;;;;;;7.00;99.90;;;;;;5093312;28;19978;-68
2022/11/24 01:01:34;;;;;;;;;;;7.00;99.90;;;;;;5092497;28;20289;-68
2022/11/24 01:04:00;;;;;;;;;;;7.20;99.90;;;;;;5092473;28;19932;-67
2022/11/24 01:06:26;;;;;;;;;;;7.00;99.90;;;;;;5092383;28;19924;-67
2022/11/24 01:08:52;;;;;;;;;;;7.00;99.90;;;;;;5092836;28;20320;-68
2022/11/24 01:11:25;;;;;;;;;;;7.00;99.90;;;;;;5125815;27;19924;-66
2022/11/24 01:13:53;;;;;;;;;;;7.00;99.90;;;;;;5092990;28;19928;-66
2022/11/24 01:16:29;;;;;;;;;;;7.10;99.90;;;;;;5092725;28;20035;-66
2022/11/24 01:18:55;;;;;;;;;;;7.00;99.90;;;;;;5093018;28;19939;-68
2022/11/24 01:21:21;;;;;;;;;;;7.00;99.90;;;;;;5091518;28;20338;-66
2022/11/24 01:23:47;;;;;;;;;;;7.00;99.90;;;;;;5091579;28;19940;-66
2022/11/24 01:26:15;;;;;;;;;;;7.00;99.90;;;;;;5092793;28;19924;-67
2022/11/24 01:28:41;;;;;;;;;;;6.90;99.90;;;;;;5092789;28;19928;-67
2022/11/24 01:31:06;;;;;;;;;;;6.90;99.90;;;;;;5092467;28;19924;-66
2022/11/24 01:33:33;;;;;;;;;;;6.90;99.90;;;;;;5092098;28;19931;-67
2022/11/24 01:35:58;;;;;;;;;;;6.90;99.90;;;;;;5091403;28;19979;-66
2022/11/24 01:38:25;;;;;;;;;;;6.90;99.90;;;;;;5092171;28;20439;-65
2022/11/24 01:41:09;;;;;;;;;;;6.90;99.90;;;;;;5090553;28;19928;-66
2022/11/24 01:43:35;;;;;;;;;;;6.90;99.90;;;;;;5090708;28;19924;-66
2022/11/24 01:46:12;;;;;;;;;;;6.70;99.90;;;;;;5092456;28;19928;-66
2022/11/24 01:48:42;;;;;;;;;;;6.80;99.90;;;;;;5092075;28;19941;-66
2022/11/24 01:51:18;;;;;;;;;;;6.70;99.90;;;;;;5125299;27;19931;-66
2022/11/24 01:53:46;;;;;;;;;;;6.70;99.90;;;;;;5092451;28;19931;-67
2022/11/24 01:56:12;;;;;;;;;;;6.70;99.90;;;;;;5092361;28;19924;-68
2022/11/24 01:58:38;;;;;;;;;;;6.70;99.90;;;;;;5091856;28;19991;-66
2022/11/24 02:01:04;;;;;;;;;;;6.70;99.90;;;;;;5124501;27;19928;-66
2022/11/24 02:03:34;;;;;;;;;;;6.80;99.90;;;;;;5090760;28;19928;-66
2022/11/24 02:06:02;;;;;;;;;;;6.80;99.90;;;;;;5092083;28;19924;-66
2022/11/24 02:08:28;;;;;;;;;;;6.90;99.90;;;;;;5091789;28;20027;-67
2022/11/24 02:10:53;;;;;;;;;;;6.90;99.90;;;;;;5107616;28;20018;-66
2022/11/24 02:13:20;;;;;;;;;;;6.90;99.90;;;;;;5090764;28;19931;-67
2022/11/24 02:15:46;;;;;;;;;;;6.90;99.90;;;;;;5091795;28;20026;-66
2022/11/24 02:18:11;;;;;;;;;;;6.90;99.90;;;;;;5092080;28;19967;-67
2022/11/24 02:20:37;;;;;;;;;;;6.90;99.90;;;;;;5091491;28;20396;-67
2022/11/24 02:23:21;;;;;;;;;;;6.90;99.90;;;;;;5090850;28;19924;-66
2022/11/24 02:26:09;;;;;;;;;;;6.90;99.90;;;;;;5091787;28;20007;-67
2022/11/24 02:28:34;;;;;;;;;;;6.90;99.90;;;;;;5091161;28;20343;-67
2022/11/24 02:31:00;;;;;;;;;;;7.00;99.90;;;;;;5124174;27;20011;-66
2022/11/24 02:33:26;;;;;;;;;;;7.00;99.90;;;;;;5073293;28;19924;-68
2022/11/24 02:35:52;;;;;;;;;;;7.00;99.90;;;;;;5091346;28;19924;-66
2022/11/24 02:38:18;;;;;;;;;;;7.00;99.90;;;;;;5124515;28;19924;-69
2022/11/24 02:40:45;;;;;;;;;;;7.00;99.90;;;;;;5091158;28;20005;-65
2022/11/24 02:43:14;;;;;;;;;;;7.00;99.90;;;;;;5091573;28;19931;-66
2022/11/24 02:45:40;;;;;;;;;;;7.00;99.90;;;;;;5091097;28;19950;-65
2022/11/24 02:48:06;;;;;;;;;;;7.10;99.90;;;;;;5090635;28;19924;-67
2022/11/24 02:50:31;;;;;;;;;;;6.90;99.90;;;;;;5090848;28;19924;-65
2022/11/24 02:52:57;;;;;;;;;;;6.90;99.90;;;;;;5094324;28;19924;-66
2022/11/24 02:55:22;;;;;;;;;;;6.90;99.90;;;;;;5128776;27;19928;-65
2022/11/24 02:57:48;;;;;;;;;;;6.90;99.90;;;;;;5095298;28;20011;-65
2022/11/24 03:00:14;;;;;;;;;;;6.90;99.90;;;;;;5094496;28;20066;-66
2022/11/24 03:02:40;;;;;;;;;;;6.90;99.90;;;;;;5128067;27;19939;-66
2022/11/24 03:05:05;;;;;;;;;;;6.90;99.90;;;;;;5094439;28;19927;-65
2022/11/24 03:07:31;;;;;;;;;;;6.90;99.90;;;;;;5095028;28;20030;-66
2022/11/24 03:09:57;;;;;;;;;;;6.90;99.90;;;;;;5095176;28;19931;-65
2022/11/24 03:12:22;;;;;;;;;;;6.90;99.90;;;;;;5095537;28;20296;-66
2022/11/24 03:14:48;;;;;;;;;;;6.90;99.90;;;;;;5094805;28;19924;-66
2022/11/24 03:17:13;;;;;;;;;;;7.30;99.90;;;;;;5094906;28;19924;-66
2022/11/24 03:19:39;;;;;;;;;;;6.90;99.90;;;;;;5094763;28;19978;-65
2022/11/24 03:22:04;;;;;;;;;;;7.00;99.90;;;;;;5093934;28;19924;-66
2022/11/24 03:24:30;;;;;;;;;;;6.90;99.90;;;;;;5093971;28;19928;-66
2022/11/24 03:26:55;;;;;;;;;;;7.00;99.90;;;;;;5127376;27;19977;-66
2022/11/24 03:29:21;;;;;;;;;;;7.00;99.90;;;;;;5093700;28;20369;-65
2022/11/24 03:31:47;;;;;;;;;;;7.00;99.90;;;;;;5094411;28;20335;-65
2022/11/24 03:34:12;;;;;;;;;;;7.00;99.90;;;;;;5093661;28;20010;-65
2022/11/24 03:36:38;;;;;;;;;;;7.00;99.90;;;;;;5094619;28;19928;-66
2022/11/24 03:39:04;;;;;;;;;;;7.00;99.90;;;;;;5127772;27;19973;-66
2022/11/24 03:41:29;;;;;;;;;;;7.00;99.90;;;;;;5094652;28;20270;-65
2022/11/24 03:43:55;;;;;;;;;;;7.10;99.90;;;;;;5092126;28;19927;-65
2022/11/24 03:46:20;;;;;;;;;;;7.10;99.90;;;;;;5110872;28;19946;-67
2022/11/24 03:48:46;;;;;;;;;;;7.20;99.90;;;;;;5093035;28;19924;-66
2022/11/24 03:51:12;;;;;;;;;;;7.10;99.90;;;;;;5094684;28;19924;-66
2022/11/24 03:53:37;;;;;;;;;;;7.10;99.90;;;;;;5093129;28;19938;-73
2022/11/24 03:56:03;;;;;;;;;;;7.10;99.90;;;;;;5094411;28;19977;-68
2022/11/24 03:58:28;;;;;;;;;;;7.10;99.90;;;;;;5093479;28;20350;-67
2022/11/24 04:00:54;;;;;;;;;;;7.10;99.90;;;;;;5094038;28;20442;-67
2022/11/24 04:03:20;;;;;;;;;;;7.10;99.90;;;;;;5093958;28;19935;-66
2022/11/24 04:05:46;;;;;;;;;;;7.10;99.90;;;;;;5092746;28;19924;-66
2022/11/24 04:08:12;;;;;;;;;;;7.10;99.90;;;;;;5093399;28;19924;-68
2022/11/24 04:10:38;;;;;;;;;;;7.10;99.90;;;;;;5093984;28;20409;-72
2022/11/24 04:13:09;;;;;;;;;;;7.10;99.90;;;;;;5094017;28;19971;-66
2022/11/24 04:15:36;;;;;;;;;;;7.00;99.90;;;;;;5076107;28;20024;-67
2022/11/24 04:18:01;;;;;;;;;;;7.00;99.90;;;;;;5093754;28;19924;-66
2022/11/24 04:20:27;;;;;;;;;;;7.00;99.90;;;;;;5126947;27;19924;-65
2022/11/24 04:22:53;;;;;;;;;;;6.90;99.90;;;;;;5093450;28;19928;-66
2022/11/24 04:25:18;;;;;;;;;;;6.90;99.90;;;;;;5092633;28;19924;-65
2022/11/24 04:27:44;;;;;;;;;;;6.90;99.90;;;;;;5093606;28;19931;-65
2022/11/24 04:30:10;;;;;;;;;;;6.80;99.90;;;;;;5093841;28;20189;-67
2022/11/24 04:32:36;;;;;;;;;;;6.90;99.90;;;;;;5093954;28;20293;-66
2022/11/24 04:35:01;;;;;;;;;;;6.90;99.90;;;;;;5091649;28;19920;-66
2022/11/24 04:37:27;;;;;;;;;;;6.90;99.90;;;;;;5093786;28;19928;-65
2022/11/24 04:39:54;;;;;;;;;;;6.80;99.90;;;;;;5093528;28;19931;-66
2022/11/24 04:42:20;;;;;;;;;;;6.80;99.90;;;;;;5109373;28;19932;-66
2022/11/24 04:44:45;;;;;;;;;;;6.80;99.90;;;;;;5093351;28;19924;-72
2022/11/24 04:47:14;;;;;;;;;;;6.80;99.90;;;;;;5093492;28;19925;-66
2022/11/24 04:49:39;;;;;;;;;;;7.10;99.90;;;;;;5093831;28;20070;-66
2022/11/24 04:52:05;;;;;;;;;;;6.80;99.90;;;;;;5093206;28;20151;-66
2022/11/24 04:54:30;;;;;;;;;;;6.80;99.90;;;;;;5092606;28;19928;-69
2022/11/24 04:56:56;;;;;;;;;;;6.70;99.90;;;;;;5091826;28;19931;-67
2022/11/24 04:59:21;;;;;;;;;;;6.70;99.90;;;;;;5075255;28;20045;-66
2022/11/24 05:01:47;;;;;;;;;;;6.70;99.90;;;;;;5093097;28;20262;-72
2022/11/24 05:04:14;;;;;;;;;;;6.70;99.90;;;;;;5093310;28;20036;-66
2022/11/24 05:06:39;;;;;;;;;;;6.70;99.90;;;;;;5092070;28;19971;-66
2022/11/24 05:09:05;;;;;;;;;;;6.70;99.90;;;;;;5092774;28;20006;-67
2022/11/24 05:11:31;;;;;;;;;;;6.70;99.90;;;;;;5093124;28;20010;-66
2022/11/24 05:13:57;;;;;;;;;;;6.70;99.90;;;;;;5125808;27;20369;-67
2022/11/24 05:16:22;;;;;;;;;;;6.60;99.90;;;;;;5091539;28;19924;-67
2022/11/24 05:18:48;;;;;;;;;;;6.70;99.90;;;;;;5092935;28;20004;-73
2022/11/24 05:21:14;;;;;;;;;;;6.80;99.90;;;;;;5092779;28;20288;-68
2022/11/24 05:23:40;;;;;;;;;;;6.70;99.90;;;;;;5125712;27;19924;-67
2022/11/24 05:26:05;;;;;;;;;;;6.60;99.90;;;;;;5091541;28;19928;-67
2022/11/24 05:28:31;;;;;;;;;;;6.60;99.90;;;;;;5092613;28;19932;-68
2022/11/24 05:31:03;;;;;;;;;;;6.60;99.90;;;;;;5125123;27;19954;-68
2022/11/24 05:33:31;;;;;;;;;;;6.60;99.90;;;;;;5091865;28;20281;-67
2022/11/24 05:36:01;;;;;;;;;;;6.70;99.90;;;;;;5074992;28;20282;-66
2022/11/24 05:38:28;;;;;;;;;;;6.70;99.90;;;;;;5092486;28;19924;-68
2022/11/24 05:40:54;;;;;;;;;;;6.80;99.90;;;;;;5092238;28;19931;-69
2022/11/24 05:43:19;;;;;;;;;;;6.70;99.90;;;;;;5125181;27;19924;-66
2022/11/24 05:45:45;;;;;;;;;;;6.60;99.90;;;;;;5092348;28;19928;-66
2022/11/24 05:48:12;;;;;;;;;;;6.70;99.90;;;;;;5091980;28;20007;-65
2022/11/24 05:50:38;;;;;;;;;;;6.70;99.90;;;;;;5092339;28;19924;-66
2022/11/24 05:53:04;;;;;;;;;;;6.70;99.90;;;;;;5124777;27;19954;-65
2022/11/24 05:55:30;;;;;;;;;;;6.70;99.90;;;;;;5092045;28;19924;-66
2022/11/24 05:57:59;;;;;;;;;;;6.70;99.90;;;;;;5090827;28;20011;-72
2022/11/24 06:00:25;;;;;;;;;;;6.70;99.90;;;;;;5125059;27;19924;-70
2022/11/24 06:02:50;;;;;;;;;;;6.70;99.90;;;;;;5073771;28;19928;-66
2022/11/24 06:05:16;;;;;;;;;;;6.70;99.90;;;;;;5124857;27;19924;-66
2022/11/24 06:07:42;;;;;;;;;;;6.70;99.90;;;;;;5090883;28;19924;-66
2022/11/24 06:10:08;;;;;;;;;;;6.70;99.90;;;;;;5090502;28;19924;-67
2022/11/24 06:12:34;;;;;;;;;;;6.70;99.90;;;;;;5124866;27;19981;-66
2022/11/24 06:15:00;;;;;;;;;;;6.60;99.90;;;;;;5090615;28;19924;-68
2022/11/24 06:17:25;;;;;;;;;;;6.60;99.90;;;;;;5090701;28;20289;-67
2022/11/24 06:19:51;;;;;;;;;;;6.70;99.90;;;;;;5090425;28;20327;-67
2022/11/24 06:22:18;;;;;;;;;;;7.20;99.90;;;;;;5090200;28;19928;-66
2022/11/24 06:24:45;;;;;;;;;;;6.60;99.90;;;;;;5091663;28;19924;-67
2022/11/24 06:27:11;;;;;;;;;;;6.60;99.90;;;;;;5090670;28;19928;-67
2022/11/24 06:29:37;;;;;;;;;;;6.60;99.90;;;;;;5091747;28;20320;-66
2022/11/24 06:32:02;;;;;;;;;;;6.60;99.90;;;;;;5090061;28;19924;-69
2022/11/24 06:34:28;;;;;;;;;;;6.60;99.90;;;;;;5124469;28;19970;-66
2022/11/24 06:36:53;;;;;;;;;;;6.60;99.90;;;;;;5073762;28;19928;-66
2022/11/24 06:39:19;;;;;;;;;;;6.60;99.90;;;;;;5090272;28;20018;-65
2022/11/24 06:41:44;;;;;;;;;;;6.60;99.90;;;;;;5091602;28;19932;-66
2022/11/24 06:44:10;;;;;;;;;;;6.50;99.90;;;;;;5090893;28;19927;-66
2022/11/24 06:46:36;;;;;;;;;;;6.60;99.90;;;;;;5091510;28;19978;-66
2022/11/24 06:49:01;;;;;;;;;;;6.50;99.90;;;;;;5090026;28;19924;-67
2022/11/24 06:51:27;;;;;;;;;;;6.50;99.90;;;;;;5091136;28;19982;-66
2022/11/24 06:53:52;;;;;;;;;;;6.50;99.90;;;;;;5090271;28;19924;-67
2022/11/24 06:56:19;;;;;;;;;;;6.50;99.90;;;;;;5091029;28;20011;-66
2022/11/24 06:58:46;;;;;;;;;;;6.50;99.90;;;;;;5090484;28;19969;-65
2022/11/24 07:01:15;;;;;;;;;;;6.40;99.90;;;;;;5089929;28;19990;-66
2022/11/24 07:03:41;;;;;;;;;;;6.50;99.90;;;;;;5090378;28;19984;-66
2022/11/24 07:06:06;;;;;;;;;;;6.40;99.90;;;;;;5091051;28;19999;-73
2022/11/24 07:08:32;;;;;;;;;;;6.50;99.90;;;;;;5106912;28;19923;-66
2022/11/24 07:11:02;;;;;;;;;;;6.40;99.90;;;;;;5091166;28;19931;-66
2022/11/24 07:13:28;;;;;;;;;;;6.30;99.90;;;;;;5090979;28;19920;-66
2022/11/24 07:15:53;;;;;;;;;;;6.50;99.90;;;;;;5106955;28;20023;-65
2022/11/24 07:18:19;;;;;;;;;;;6.40;99.90;;;;;;5090634;28;19928;-67
2022/11/24 07:20:44;;;;;;;;;;;6.50;99.90;;;;;;5091131;28;20373;-66
2022/11/24 07:23:10;;;;;;;;;;;6.60;99.90;;;;;;5072733;28;20394;-71
2022/11/24 07:25:35;;;;;;;;;;;6.40;99.90;;;;;;5089840;28;19928;-66
2022/11/24 07:28:01;;;;;;;;;;;6.40;99.90;;;;;;5090765;28;19982;-66
2022/11/24 07:30:27;;;;;;;;;;;6.50;99.90;;;;;;5122840;28;20293;-65
2022/11/24 07:32:59;;;;;;;;;;;6.50;99.90;;;;;;5123477;28;19932;-66
2022/11/24 07:35:25;;;;;;;;;;;6.50;99.90;;;;;;5089434;28;19924;-66
2022/11/24 07:37:53;;;;;;;;;;;6.50;99.90;;;;;;5090722;28;19942;-66
2022/11/24 07:40:18;;;;;;;;;;;6.50;99.90;;;;;;5093379;28;19925;-68
2022/11/24 07:42:44;;;;;;;;;;;6.50;99.90;;;;;;5094297;28;19924;-67
2022/11/24 07:45:09;;;;;;;;;;;6.50;99.90;;;;;;5094430;28;20108;-67
2022/11/24 07:47:38;;;;;;;;;;;6.50;99.90;;;;;;5093823;28;20388;-66
2022/11/24 07:50:04;;;;;;;;;;;6.50;99.90;;;;;;5094242;28;19931;-67
2022/11/24 07:52:29;;;;;;;;;;;6.50;99.90;;;;;;5093909;28;20288;-66
2022/11/24 07:54:55;;;;;;;;;;;6.50;99.90;;;;;;5093952;28;19924;-67
2022/11/24 07:57:22;;;;;;;;;;;6.50;99.90;;;;;;5093744;28;19940;-68
2022/11/24 07:59:47;;;;;;;;;;;6.60;99.90;;;;;;5094000;28;19979;-68
2022/11/24 08:02:13;;;;;;;;;;;6.60;99.90;;;;;;5093207;28;19924;-73
2022/11/24 08:04:39;;;;;;;;;;;6.60;99.90;;;;;;5092875;28;19983;-68
2022/11/24 08:07:04;;;;;;;;;;;6.70;99.90;;;;;;5094013;28;20369;-68
2022/11/24 08:09:30;;;;;;;;;;;6.60;99.90;;;;;;5092447;28;19928;-68
2022/11/24 08:11:55;;;;;;;;;;;6.60;99.90;;;;;;5094075;28;19929;-67
2022/11/24 08:14:21;;;;;;;;;;;6.60;99.90;;;;;;5093673;28;19924;-67
2022/11/24 08:16:46;;;;;;;;;;;6.70;99.90;;;;;;5092630;28;19970;-67
2022/11/24 08:19:12;;;;;;;;;;;6.70;99.90;;;;;;5092801;28;19977;-67
2022/11/24 08:21:38;;;;;;;;;;;6.70;99.90;;;;;;5093431;28;20071;-67
2022/11/24 08:24:03;;;;;;;;;;;6.80;99.90;;;;;;5126439;27;20345;-67
2022/11/24 08:26:29;;;;;;;;;;;6.80;99.90;;;;;;5093164;28;19924;-68
2022/11/24 08:28:56;;;;;;;;;;;6.80;99.90;;;;;;5093456;28;19928;-69
2022/11/24 08:31:22;;;;;;;;;;;6.80;99.90;;;;;;5093064;28;19924;-68
2022/11/24 08:33:48;;;;;;;;;;;6.80;99.90;;;;;;5092275;28;20349;-68
2022/11/24 08:36:15;;;;;;;;;;;6.80;99.90;;;;;;5092157;28;19924;-67
2022/11/24 08:38:40;;;;;;;;;;;6.80;99.90;;;;;;5092865;28;20056;-67
2022/11/24 08:41:08;;;;;;;;;;;6.80;99.90;;;;;;5093179;28;20396;-69
2022/11/24 08:43:34;;;;;;;;;;;6.90;99.90;;;;;;5093020;28;19930;-67
2022/11/24 08:46:03;;;;;;;;;;;7.00;99.90;;;;;;5126399;27;20319;-67
2022/11/24 08:48:29;;;;;;;;;;;7.00;99.90;;;;;;5093053;28;19924;-68
2022/11/24 08:50:55;;;;;;;;;;;7.10;99.90;;;;;;5091726;28;20015;-67
2022/11/24 08:53:20;;;;;;;;;;;7.10;99.90;;;;;;5093339;28;19935;-67
2022/11/24 08:55:46;;;;;;;;;;;7.30;99.90;;;;;;5092554;28;20358;-67
2022/11/24 08:58:11;;;;;;;;;;;7.30;99.90;;;;;;5092848;28;19924;-67
2022/11/24 09:00:37;;;;;;;;;;;7.30;99.90;;;;;;5092546;28;19963;-67
2022/11/24 09:03:02;;;;;;;;;;;7.40;99.90;;;;;;5092850;28;19977;-66
2022/11/24 09:05:28;;;;;;;;;;;7.50;99.90;;;;;;5092650;28;19969;-67
2022/11/24 09:07:54;;;;;;;;;;;7.60;99.90;;;;;;5092976;28;19931;-66
2022/11/24 09:10:19;;;;;;;;;;;7.60;99.90;;;;;;5092757;28;20401;-67
2022/11/24 09:12:46;;;;;;;;;;;7.70;99.90;;;;;;5091730;28;20560;-67
2022/11/24 09:15:12;;;;;;;;;;;7.70;99.90;;;;;;5092681;28;20385;-67
2022/11/24 09:17:38;;;;;;;;;;;7.80;99.90;;;;;;5072109;28;20297;-65
2022/11/24 09:20:04;;;;;;;;;;;7.80;99.90;;;;;;5090601;28;19934;-67
2022/11/24 09:22:30;;;;;;;;;;;7.80;99.90;;;;;;5091947;28;19948;-70
2022/11/24 09:24:55;;;;;;;;;;;7.80;99.90;;;;;;5090304;28;20496;-68
2022/11/24 09:27:21;;;;;;;;;;;8.00;99.90;;;;;;5091326;28;19924;-68
2022/11/24 09:29:47;;;;;;;;;;;7.70;99.90;;;;;;5090339;28;19987;-68
2022/11/24 09:32:12;;;;;;;;;;;7.70;99.90;;;;;;5073448;28;20018;-67
2022/11/24 09:34:38;;;;;;;;;;;7.70;99.90;;;;;;5091679;28;19983;-69
2022/11/24 09:37:03;;;;;;;;;;;7.80;99.90;;;;;;5123643;27;19924;-68
2022/11/24 09:39:29;;;;;;;;;;;7.80;99.90;;;;;;5091714;28;19971;-72
2022/11/24 09:42:00;;;;;;;;;;;7.80;99.90;;;;;;5091043;28;19924;-66
2022/11/24 09:44:26;;;;;;;;;;;7.90;99.90;;;;;;5091637;28;19996;-68
2022/11/24 09:46:55;;;;;;;;;;;7.90;99.90;;;;;;5090460;28;19924;-66
2022/11/24 09:49:33;;;;;;;;;;;7.90;99.90;;;;;;5091853;28;19935;-66
2022/11/24 09:52:01;;;;;;;;;;;8.00;99.90;;;;;;5072313;28;20226;-66
2022/11/24 09:54:28;;;;;;;;;;;8.00;99.90;;;;;;5091869;28;19931;-67
2022/11/24 09:56:56;;;;;;;;;;;8.00;99.90;;;;;;5091448;28;19924;-68
2022/11/24 09:59:22;;;;;;;;;;;8.10;99.90;;;;;;5090421;28;19923;-66
2022/11/24 10:01:49;;;;;;;;;;;8.20;99.90;;;;;;5089458;28;20439;-67
2022/11/24 10:04:27;;;;;;;;;;;8.20;99.90;;;;;;5090627;28;19924;-66
2022/11/24 10:06:55;;;;;;;;;;;8.20;99.90;;;;;;5090114;28;20065;-66
2022/11/24 10:09:21;;;;;;;;;;;8.30;99.90;;;;;;5091990;28;19924;-66
2022/11/24 10:12:12;;;;;;;;;;;8.30;99.90;;;;;;5090206;28;19931;-67
2022/11/24 10:14:48;;;;;;;;;;;8.30;99.90;;;;;;5090470;28;20018;-67
2022/11/24 10:17:26;;;;;;;;;;;8.40;99.90;;;;;;5090462;28;19924;-67
2022/11/24 10:19:52;;;;;;;;;;;8.50;99.90;;;;;;5091273;28;20178;-67
2022/11/24 10:22:27;;;;;;;;;;;8.50;99.90;;;;;;5090127;28;19924;-67
2022/11/24 10:25:14;;;;;;;;;;;8.50;99.90;;;;;;5089924;28;19927;-68
2022/11/24 10:27:42;;;;;;;;;;;8.50;99.90;;;;;;5091403;28;19931;-68
2022/11/24 10:30:12;;;;;;;;;;;8.50;99.90;;;;;;5090343;28;19924;-68
2022/11/24 10:32:41;;;;;;;;;;;8.60;99.90;;;;;;5091111;28;20270;-73
2022/11/24 10:35:14;;;;;;;;;;;8.70;99.90;;;;;;5091637;28;19924;-67
2022/11/24 10:37:44;;;;;;;;;;;8.70;99.90;;;;;;5107215;28;19928;-68
2022/11/24 10:40:48;;;;;;;;;;;8.70;99.90;;;;;;5091422;28;20058;-70
2022/11/24 10:43:14;;;;;;;;;;;8.80;99.90;;;;;;5048276;28;20088;-70
2022/11/24 10:45:40;;;;;;;;;;;8.80;99.90;;;;;;5065036;28;19929;-73
2022/11/24 10:48:26;;;;;;;;;;;8.90;99.90;;;;;;5068014;28;20223;-69
2022/11/24 10:50:53;;;;;;;;;;;8.90;99.90;;;;;;5106383;28;19947;-69
2022/11/24 10:53:33;;;;;;;;;;;8.90;99.90;;;;;;5091518;28;20011;-69
2022/11/24 10:56:00;;;;;;;;;;;8.90;99.90;;;;;;5091132;28;20116;-69
2022/11/24 10:58:27;;;;;;;;;;;8.90;99.90;;;;;;5090388;28;19924;-69
2022/11/24 11:00:53;;;;;;;;;;;8.80;99.90;;;;;;5091037;28;19924;-70
2022/11/24 11:03:21;;;;;;;;;;;8.90;99.90;;;;;;5124110;28;19924;-69
2022/11/24 11:05:49;;;;;;;;;;;8.90;99.90;;;;;;5106668;28;20287;-69
2022/11/24 11:08:14;;;;;;;;;;;9.00;99.90;;;;;;5090088;28;19931;-70
2022/11/24 11:10:41;;;;;;;;;;;9.00;99.90;;;;;;5090090;28;20304;-70
2022/11/24 11:13:19;;;;;;;;;;;9.00;99.90;;;;;;5090743;28;19924;-70
2022/11/24 11:15:45;;;;;;;;;;;9.10;99.90;;;;;;5110500;28;19924;-71
2022/11/24 11:18:13;;;;;;;;;;;9.10;99.90;;;;;;5095077;28;19924;-71
2022/11/24 11:20:39;;;;;;;;;;;9.10;99.90;;;;;;5111073;28;19960;-71
2022/11/24 11:23:15;;;;;;;;;;;9.20;99.90;;;;;;5110766;28;20286;-71
2022/11/24 11:25:42;;;;;;;;;;;9.20;99.90;;;;;;5094830;28;20014;-72
2022/11/24 11:28:17;;;;;;;;;;;9.20;99.90;;;;;;5093909;28;19924;-70
2022/11/24 11:30:59;;;;;;;;;;;9.30;99.90;;;;;;5127878;27;20015;-70
2022/11/24 11:33:27;;;;;;;;;;;9.30;99.90;;;;;;5110840;28;20027;-71
2022/11/24 11:35:53;;;;;;;;;;;9.40;99.90;;;;;;5093618;28;19977;-70
2022/11/24 11:38:19;;;;;;;;;;;9.40;99.90;;;;;;5094642;28;19924;-69
2022/11/24 11:40:47;;;;;;;;;;;9.50;99.90;;;;;;5127998;27;19924;-69
2022/11/24 11:43:22;;;;;;;;;;;9.50;99.90;;;;;;5093064;28;19931;-70
2022/11/24 11:45:56;;;;;;;;;;;9.50;99.90;;;;;;5094719;28;19925;-75
2022/11/24 11:48:26;;;;;;;;;;;9.60;99.90;;;;;;5093810;28;20365;-70
2022/11/24 11:50:54;;;;;;;;;;;9.60;99.90;;;;;;5127070;27;19985;-70
2022/11/24 11:53:29;;;;;;;;;;;9.70;99.90;;;;;;5093355;28;19927;-69
2022/11/24 11:55:57;;;;;;;;;;;9.70;99.90;;;;;;5093178;28;20296;-72
2022/11/24 11:58:41;;;;;;;;;;;9.80;99.90;;;;;;5094558;28;19930;-72
2022/11/24 12:01:16;;;;;;;;;;;9.80;99.90;;;;;;5094246;28;19924;-71
2022/11/24 12:03:55;;;;;;;;;;;9.80;99.90;;;;;;5110522;28;19931;-71
2022/11/24 12:06:24;;;;;;;;;;;9.90;99.90;;;;;;5093325;28;19924;-71
2022/11/24 12:09:08;;;;;;;;;;;9.90;99.90;;;;;;5094480;28;19947;-73
2022/11/24 12:12:00;;;;;;;;;;;9.90;99.90;;;;;;5093250;28;20381;-71
2022/11/24 12:14:25;;;;;;;;;;;10.00;99.90;;;;;;5103103;27;19924;-71
2022/11/24 12:17:03;;;;;;;;;;;10.00;99.90;;;;;;5092757;28;19938;-74
2022/11/24 12:19:29;;;;;;;;;;;10.00;99.90;;;;;;5094324;28;19924;-71
2022/11/24 12:22:00;;;;;;;;;;;10.10;99.90;;;;;;5092577;28;20023;-72
2022/11/24 12:24:35;;;;;;;;;;;10.10;99.90;;;;;;5092539;28;19928;-70
2022/11/24 12:27:10;;;;;;;;;;;10.10;99.90;;;;;;5126247;27;20277;-70
2022/11/24 12:29:58;;;;;;;;;;;10.10;99.90;;;;;;5088946;28;19924;-71
2022/11/24 12:32:31;;;;;;;;;;;10.20;99.90;;;;;;5092555;28;19931;-69
2022/11/24 12:35:12;;;;;;;;;;;10.20;99.90;;;;;;5123052;27;19924;-72
2022/11/24 12:37:42;;;;;;;;;;;10.20;99.90;;;;;;5092682;28;19928;-69
2022/11/24 12:40:21;;;;;;;;;;;10.20;99.90;;;;;;5093313;28;19931;-69
2022/11/24 12:42:55;;;;;;;;;;;10.30;99.90;;;;;;5092429;28;19924;-70
2022/11/24 12:45:23;;;;;;;;;;;10.30;99.90;;;;;;5093478;28;19924;-69
2022/11/24 12:48:18;;;;;;;;;;;10.30;99.90;;;;;;5092680;28;19924;-73
2022/11/24 12:50:44;;;;;;;;;;;10.30;99.90;;;;;;5054883;28;19929;-68
2022/11/24 12:53:23;;;;;;;;;;;10.30;99.90;;;;;;5089270;28;19928;-70
2022/11/24 12:55:49;;;;;;;;;;;10.30;99.90;;;;;;5126399;27;19999;-69
2022/11/24 12:58:44;;;;;;;;;;;10.30;99.90;;;;;;5091844;28;19967;-69
2022/11/24 13:01:20;;;;;;;;;;;10.30;99.90;;;;;;5071740;28;19928;-70
2022/11/24 13:04:18;;;;;;;;;;;10.30;99.90;;;;;;5091468;28;19927;-72
2022/11/24 13:06:47;;;;;;;;;;;10.30;99.90;;;;;;5090141;27;20320;-70
2022/11/24 13:09:12;;;;;;;;;;;10.30;99.90;;;;;;5092099;28;19924;-69
2022/11/24 13:11:39;;;;;;;;;;;10.20;99.90;;;;;;5092223;28;19932;-69
2022/11/24 13:14:05;;;;;;;;;;;10.30;99.90;;;;;;5091558;28;20400;-69
2022/11/24 13:16:30;;;;;;;;;;;10.30;99.90;;;;;;5091149;28;19975;-69
2022/11/24 13:19:01;;;;;;;;;;;10.30;99.90;;;;;;5057970;28;19924;-68
2022/11/24 13:21:29;;;;;;;;;;;10.30;99.90;;;;;;5108640;28;19924;-69
2022/11/24 13:24:00;;;;;;;;;;;10.30;99.90;;;;;;5091313;28;20010;-69
2022/11/24 13:26:30;;;;;;;;;;;10.30;99.90;;;;;;5092513;28;19930;-69
2022/11/24 13:29:00;;;;;;;;;;;10.30;99.90;;;;;;5090056;28;19925;-70
2022/11/24 13:31:27;;;;;;;;;;;10.30;99.90;;;;;;5107513;28;20454;-69
2022/11/24 13:33:53;;;;;;;;;;;10.30;99.90;;;;;;5125326;27;19932;-69
2022/11/24 13:36:22;;;;;;;;;;;10.30;99.90;;;;;;5090932;28;20633;-69
2022/11/24 13:38:47;;;;;;;;;;;10.30;99.90;;;;;;5108644;28;19950;-70
2022/11/24 13:41:31;;;;;;;;;;;10.30;99.90;;;;;;5107968;28;19939;-69
2022/11/24 13:44:12;;;;;;;;;;;10.20;99.90;;;;;;5090827;28;19924;-70
2022/11/24 13:46:56;;;;;;;;;;;10.20;99.90;;;;;;5091628;28;20001;-70
2022/11/24 13:49:22;;;;;;;;;;;10.20;99.90;;;;;;5092029;28;19920;-69
2022/11/24 13:51:51;;;;;;;;;;;10.20;99.90;;;;;;5092215;28;20026;-69
2022/11/24 13:54:17;;;;;;;;;;;10.20;99.90;;;;;;5091124;28;19924;-70
2022/11/24 13:56:43;;;;;;;;;;;10.10;99.90;;;;;;5090776;28;19931;-68
2022/11/24 13:59:28;;;;;;;;;;;10.10;99.90;;;;;;5091662;28;19981;-70
2022/11/24 14:01:57;;;;;;;;;;;10.10;99.90;;;;;;5092004;28;19924;-70
2022/11/24 14:04:24;;;;;;;;;;;10.10;99.90;;;;;;5090550;28;19924;-70
2022/11/24 14:06:49;;;;;;;;;;;10.10;99.90;;;;;;5074117;28;19967;-69
2022/11/24 14:09:18;;;;;;;;;;;10.00;99.90;;;;;;5090092;28;19931;-69
2022/11/24 14:11:53;;;;;;;;;;;10.00;99.90;;;;;;5091049;28;19924;-69
2022/11/24 14:14:19;;;;;;;;;;;10.00;99.90;;;;;;5107490;28;20015;-69
2022/11/24 14:16:45;;;;;;;;;;;10.00;99.90;;;;;;5124641;27;20014;-70
2022/11/24 14:19:11;;;;;;;;;;;10.00;99.90;;;;;;5107119;28;19969;-69
2022/11/24 14:21:40;;;;;;;;;;;10.00;99.90;;;;;;5107726;28;19935;-70
2022/11/24 14:24:05;;;;;;;;;;;10.00;99.90;;;;;;5124476;27;19931;-76
2022/11/24 14:26:35;;;;;;;;;;;10.00;99.90;;;;;;5091635;28;19953;-70
2022/11/24 14:29:21;;;;;;;;;;;10.00;99.90;;;;;;5072495;28;19924;-70
2022/11/24 14:31:54;;;;;;;;;;;9.90;99.90;;;;;;5107131;28;20288;-70
2022/11/24 14:34:20;;;;;;;;;;;9.90;99.90;;;;;;5091445;28;20400;-70